Time;durP1;ratioP1;P1;durP2;ratioP2;P2;SDS_P1;SDS_P2;PMS_P1;PMS_P2;Temp;Humidity;BMP_temperature;BMP_pressure;BME280_temperature;BME280_humidity;BME280_pressure;Samples;Min_cycle;Max_cycle;Signal;HPM_P1;HPM_P2
2021/01/08 00:00:25;;;;;;;;;;;21.00;26.40;;;;;;492035;240;942;-70
2021/01/08 00:02:26;;;;;;;;;;;21.00;26.40;;;;;;492026;240;1279;-70
2021/01/08 00:04:27;;;;;;;;;;;21.00;26.40;;;;;;492043;240;1041;-70
2021/01/08 00:06:28;;;;;;;;;;;21.00;26.40;;;;;;491953;240;1013;-70
2021/01/08 00:08:30;;;;;;;;;;;21.10;26.40;;;;;;491956;240;1110;-71
2021/01/08 00:10:31;;;;;;;;;;;21.10;26.40;;;;;;491977;240;1021;-71
2021/01/08 00:12:32;;;;;;;;;;;21.10;26.40;;;;;;491978;240;1190;-70
2021/01/08 00:14:34;;;;;;;;;;;21.10;26.40;;;;;;491908;240;2200;-70
2021/01/08 00:16:35;;;;;;;;;;;21.10;26.40;;;;;;491958;240;937;-70
2021/01/08 00:18:36;;;;;;;;;;;21.10;26.20;;;;;;492007;240;1188;-71
2021/01/08 00:20:37;;;;;;;;;;;21.10;26.30;;;;;;492039;240;954;-71
2021/01/08 00:22:39;;;;;;;;;;;21.10;26.30;;;;;;492026;240;1121;-71
2021/01/08 00:24:40;;;;;;;;;;;21.20;26.20;;;;;;492019;240;918;-70
2021/01/08 00:26:41;;;;;;;;;;;21.10;26.30;;;;;;491919;240;1367;-70
2021/01/08 00:28:43;;;;;;;;;;;21.10;26.20;;;;;;492052;240;1168;-70
2021/01/08 00:30:44;;;;;;;;;;;21.20;26.30;;;;;;491990;240;968;-70
2021/01/08 00:32:45;;;;;;;;;;;21.20;26.20;;;;;;492072;240;1156;-70
2021/01/08 00:34:46;;;;;;;;;;;21.10;26.20;;;;;;492047;240;2195;-71
2021/01/08 00:36:48;;;;;;;;;;;21.20;26.30;;;;;;491942;240;1122;-70
2021/01/08 00:38:50;;;;;;;;;;;21.10;26.30;;;;;;491965;240;1118;-71
2021/01/08 00:40:51;;;;;;;;;;;21.10;26.20;;;;;;491961;240;1158;-70
2021/01/08 00:42:52;;;;;;;;;;;21.10;26.20;;;;;;491954;240;1108;-70
2021/01/08 00:44:53;;;;;;;;;;;21.10;26.30;;;;;;492035;240;1022;-70
2021/01/08 00:46:55;;;;;;;;;;;21.10;26.20;;;;;;491888;240;1070;-70
2021/01/08 00:48:56;;;;;;;;;;;21.10;26.30;;;;;;491966;240;1165;-71
2021/01/08 00:50:57;;;;;;;;;;;21.10;26.30;;;;;;491984;240;1292;-70
2021/01/08 00:52:59;;;;;;;;;;;21.10;26.30;;;;;;492035;240;1112;-71
2021/01/08 00:55:00;;;;;;;;;;;21.10;26.30;;;;;;491999;240;2104;-70
2021/01/08 00:57:01;;;;;;;;;;;21.10;26.30;;;;;;491947;240;1131;-70
2021/01/08 00:59:02;;;;;;;;;;;21.10;26.30;;;;;;492007;240;961;-70
2021/01/08 01:01:04;;;;;;;;;;;21.10;26.30;;;;;;491952;240;1190;-70
2021/01/08 01:03:05;;;;;;;;;;;21.10;26.20;;;;;;492032;240;1200;-70
2021/01/08 01:05:06;;;;;;;;;;;21.10;26.20;;;;;;492039;240;967;-70
2021/01/08 01:07:07;;;;;;;;;;;21.10;26.20;;;;;;491915;240;1198;-70
2021/01/08 01:09:09;;;;;;;;;;;21.10;26.20;;;;;;492022;240;941;-70
2021/01/08 01:11:10;;;;;;;;;;;21.10;26.20;;;;;;491994;240;1182;-70
2021/01/08 01:13:11;;;;;;;;;;;21.10;26.20;;;;;;492016;240;1177;-70
2021/01/08 01:15:13;;;;;;;;;;;21.10;26.20;;;;;;492020;240;2188;-70
2021/01/08 01:17:14;;;;;;;;;;;21.10;26.20;;;;;;492110;240;1614;-70
2021/01/08 01:19:15;;;;;;;;;;;21.10;26.30;;;;;;492097;240;1202;-71
2021/01/08 01:21:16;;;;;;;;;;;21.00;26.30;;;;;;492082;240;952;-70
2021/01/08 01:23:18;;;;;;;;;;;21.10;26.20;;;;;;492148;240;1353;-70
2021/01/08 01:25:19;;;;;;;;;;;21.10;26.20;;;;;;491994;240;1110;-70
2021/01/08 01:27:20;;;;;;;;;;;21.10;26.20;;;;;;492024;240;1522;-70
2021/01/08 01:29:21;;;;;;;;;;;21.10;26.20;;;;;;492055;240;984;-70
2021/01/08 01:31:23;;;;;;;;;;;21.10;26.20;;;;;;492030;240;1153;-70
2021/01/08 01:33:24;;;;;;;;;;;21.10;26.20;;;;;;491976;240;1202;-71
2021/01/08 01:35:25;;;;;;;;;;;21.10;26.20;;;;;;491981;240;2117;-71
2021/01/08 01:37:27;;;;;;;;;;;21.10;26.20;;;;;;492001;240;1150;-71
2021/01/08 01:39:28;;;;;;;;;;;21.10;26.20;;;;;;491995;240;944;-70
2021/01/08 01:41:29;;;;;;;;;;;21.10;26.20;;;;;;491963;240;1062;-71
2021/01/08 01:43:31;;;;;;;;;;;21.10;26.20;;;;;;492059;240;928;-70
2021/01/08 01:45:32;;;;;;;;;;;21.10;26.10;;;;;;492001;240;1185;-70
2021/01/08 01:47:33;;;;;;;;;;;21.20;26.10;;;;;;492041;240;977;-70
2021/01/08 01:49:34;;;;;;;;;;;21.10;26.10;;;;;;491983;240;1193;-70
2021/01/08 01:51:36;;;;;;;;;;;21.10;26.10;;;;;;491977;240;1108;-70
2021/01/08 01:53:37;;;;;;;;;;;21.10;26.10;;;;;;492062;240;2195;-70
2021/01/08 01:55:39;;;;;;;;;;;21.10;26.20;;;;;;492016;240;1400;-71
2021/01/08 01:57:39;;;;;;;;;;;21.00;26.20;;;;;;491920;242;1487;-70
2021/01/08 01:59:41;;;;;;;;;;;21.10;26.20;;;;;;492063;240;999;-70
2021/01/08 02:01:42;;;;;;;;;;;21.00;26.20;;;;;;492020;240;966;-70
2021/01/08 02:03:43;;;;;;;;;;;21.00;26.20;;;;;;492126;240;1176;-70
2021/01/08 02:05:45;;;;;;;;;;;21.00;26.20;;;;;;492030;240;1068;-70
2021/01/08 02:07:46;;;;;;;;;;;21.00;26.20;;;;;;492028;240;1061;-70
2021/01/08 02:09:47;;;;;;;;;;;21.10;26.20;;;;;;492063;240;931;-70
2021/01/08 02:11:49;;;;;;;;;;;21.10;26.10;;;;;;491917;240;1143;-70
2021/01/08 02:13:50;;;;;;;;;;;21.10;26.10;;;;;;492066;240;2117;-70
2021/01/08 02:15:51;;;;;;;;;;;21.10;26.20;;;;;;491935;240;1203;-70
2021/01/08 02:17:53;;;;;;;;;;;21.10;26.10;;;;;;492056;240;1124;-70
2021/01/08 02:19:54;;;;;;;;;;;21.20;26.10;;;;;;492137;240;1205;-70
2021/01/08 02:21:55;;;;;;;;;;;21.10;26.00;;;;;;491928;240;1220;-70
2021/01/08 02:23:56;;;;;;;;;;;21.10;26.00;;;;;;492050;240;990;-70
2021/01/08 02:25:58;;;;;;;;;;;21.20;26.10;;;;;;491890;240;1344;-70
2021/01/08 02:27:59;;;;;;;;;;;21.20;26.00;;;;;;492024;240;949;-71
2021/01/08 02:30:00;;;;;;;;;;;21.20;26.00;;;;;;492031;240;993;-71
2021/01/08 02:32:02;;;;;;;;;;;21.20;26.10;;;;;;492042;240;1044;-70
2021/01/08 02:34:03;;;;;;;;;;;21.10;26.00;;;;;;492048;240;2204;-70
2021/01/08 02:36:04;;;;;;;;;;;21.10;26.10;;;;;;492077;240;975;-70
2021/01/08 02:38:06;;;;;;;;;;;21.10;26.10;;;;;;492110;240;919;-71
2021/01/08 02:40:07;;;;;;;;;;;21.10;26.10;;;;;;492061;240;959;-70
2021/01/08 02:42:08;;;;;;;;;;;21.10;26.10;;;;;;492024;240;940;-70
2021/01/08 02:44:09;;;;;;;;;;;21.10;26.10;;;;;;491957;240;1081;-70
2021/01/08 02:46:11;;;;;;;;;;;21.10;26.10;;;;;;492041;240;954;-71
2021/01/08 02:48:12;;;;;;;;;;;21.00;26.10;;;;;;492010;240;1081;-70
2021/01/08 02:50:14;;;;;;;;;;;21.10;26.20;;;;;;492024;240;1167;-70
2021/01/08 02:52:15;;;;;;;;;;;21.10;26.10;;;;;;491871;240;1364;-70
2021/01/08 02:54:16;;;;;;;;;;;21.20;26.00;;;;;;492023;240;2228;-71
2021/01/08 02:56:17;;;;;;;;;;;21.20;26.00;;;;;;492005;240;1102;-70
2021/01/08 02:58:18;;;;;;;;;;;21.20;26.00;;;;;;491953;240;1160;-70
2021/01/08 03:00:20;;;;;;;;;;;21.10;26.00;;;;;;492011;240;947;-70
2021/01/08 03:02:21;;;;;;;;;;;21.20;26.00;;;;;;491991;240;1114;-70
2021/01/08 03:04:22;;;;;;;;;;;21.20;26.00;;;;;;492079;240;1158;-70
2021/01/08 03:06:23;;;;;;;;;;;21.10;26.00;;;;;;492019;240;1111;-70
2021/01/08 03:08:25;;;;;;;;;;;21.20;26.00;;;;;;491982;240;1063;-70
2021/01/08 03:10:26;;;;;;;;;;;21.10;26.00;;;;;;492059;240;967;-71
2021/01/08 03:12:27;;;;;;;;;;;21.10;26.00;;;;;;491904;240;1179;-70
2021/01/08 03:14:29;;;;;;;;;;;21.10;26.00;;;;;;492003;240;2132;-70
2021/01/08 03:16:30;;;;;;;;;;;21.10;26.00;;;;;;491982;240;945;-70
2021/01/08 03:18:31;;;;;;;;;;;21.10;26.00;;;;;;492021;240;959;-71
2021/01/08 03:20:32;;;;;;;;;;;21.00;26.00;;;;;;492052;240;1173;-70
2021/01/08 03:22:34;;;;;;;;;;;21.00;26.00;;;;;;492054;240;1143;-70
2021/01/08 03:24:35;;;;;;;;;;;21.10;26.10;;;;;;492040;240;946;-71
2021/01/08 03:26:36;;;;;;;;;;;21.10;26.00;;;;;;492000;240;1126;-70
2021/01/08 03:28:38;;;;;;;;;;;21.10;26.00;;;;;;491996;240;1222;-70
2021/01/08 03:30:39;;;;;;;;;;;21.10;26.00;;;;;;491955;240;1124;-70
2021/01/08 03:32:40;;;;;;;;;;;21.10;26.00;;;;;;492002;240;1150;-70
2021/01/08 03:34:41;;;;;;;;;;;21.10;26.00;;;;;;492033;240;2183;-70
2021/01/08 03:36:43;;;;;;;;;;;21.10;26.00;;;;;;491862;240;1157;-70
2021/01/08 03:38:44;;;;;;;;;;;21.10;26.00;;;;;;491975;240;1102;-70
2021/01/08 03:40:45;;;;;;;;;;;21.20;26.00;;;;;;491880;240;1143;-70
2021/01/08 03:42:47;;;;;;;;;;;21.10;25.90;;;;;;491970;240;1225;-70
2021/01/08 03:44:48;;;;;;;;;;;21.10;25.90;;;;;;492037;240;1118;-71
2021/01/08 03:46:49;;;;;;;;;;;21.20;25.90;;;;;;491916;240;1239;-71
2021/01/08 03:48:50;;;;;;;;;;;21.10;25.90;;;;;;492063;240;1105;-70
2021/01/08 03:50:52;;;;;;;;;;;21.10;25.90;;;;;;492001;240;1161;-70
2021/01/08 03:52:53;;;;;;;;;;;21.10;25.90;;;;;;492053;240;1257;-70
2021/01/08 03:54:54;;;;;;;;;;;21.10;25.90;;;;;;492007;240;2199;-70
2021/01/08 03:56:55;;;;;;;;;;;21.10;26.00;;;;;;491974;240;1126;-70
2021/01/08 03:58:57;;;;;;;;;;;21.10;26.00;;;;;;491999;240;1134;-70
2021/01/08 04:00:58;;;;;;;;;;;21.10;26.00;;;;;;492009;240;1154;-70
2021/01/08 04:03:00;;;;;;;;;;;21.10;26.00;;;;;;491925;240;1249;-70
2021/01/08 04:05:01;;;;;;;;;;;21.00;26.00;;;;;;492012;240;1212;-70
2021/01/08 04:07:02;;;;;;;;;;;21.10;26.00;;;;;;492036;240;1105;-71
2021/01/08 04:09:03;;;;;;;;;;;21.10;26.00;;;;;;491999;240;1065;-71
2021/01/08 04:11:05;;;;;;;;;;;21.10;26.00;;;;;;492013;240;1190;-70
2021/01/08 04:13:06;;;;;;;;;;;21.10;26.00;;;;;;491981;240;1259;-70
2021/01/08 04:15:07;;;;;;;;;;;21.10;26.00;;;;;;491982;240;2203;-70
2021/01/08 04:17:09;;;;;;;;;;;21.00;26.00;;;;;;492044;240;1178;-70
2021/01/08 04:19:10;;;;;;;;;;;21.00;26.00;;;;;;492088;240;1044;-71
2021/01/08 04:21:11;;;;;;;;;;;21.10;26.00;;;;;;491965;240;1205;-70
2021/01/08 04:23:12;;;;;;;;;;;21.10;26.00;;;;;;491966;240;1199;-70
2021/01/08 04:25:14;;;;;;;;;;;21.10;26.00;;;;;;491989;240;1130;-70
2021/01/08 04:27:15;;;;;;;;;;;21.10;25.90;;;;;;491966;240;1236;-70
2021/01/08 04:29:16;;;;;;;;;;;21.00;26.00;;;;;;491998;240;989;-71
2021/01/08 04:31:18;;;;;;;;;;;21.00;26.00;;;;;;491875;240;1164;-70
2021/01/08 04:33:19;;;;;;;;;;;21.10;26.00;;;;;;492010;240;1229;-70
2021/01/08 04:35:20;;;;;;;;;;;21.10;26.00;;;;;;491950;240;2176;-70
2021/01/08 04:37:21;;;;;;;;;;;21.10;26.00;;;;;;491938;240;1093;-70
2021/01/08 04:39:23;;;;;;;;;;;21.10;26.00;;;;;;492025;240;1025;-70
2021/01/08 04:41:24;;;;;;;;;;;21.10;26.00;;;;;;491886;240;1097;-70
2021/01/08 04:43:25;;;;;;;;;;;21.10;26.00;;;;;;491965;240;1157;-71
2021/01/08 04:45:26;;;;;;;;;;;21.10;26.00;;;;;;491945;240;1158;-70
2021/01/08 04:47:28;;;;;;;;;;;21.10;26.00;;;;;;492013;240;1234;-70
2021/01/08 04:49:29;;;;;;;;;;;21.10;26.00;;;;;;492039;240;1234;-70
2021/01/08 04:51:30;;;;;;;;;;;21.10;26.00;;;;;;491966;240;1198;-71
2021/01/08 04:53:32;;;;;;;;;;;21.10;26.00;;;;;;492001;240;1168;-71
2021/01/08 04:55:33;;;;;;;;;;;21.10;26.00;;;;;;491973;240;2184;-70
2021/01/08 04:57:34;;;;;;;;;;;21.10;26.00;;;;;;491938;240;1342;-70
2021/01/08 04:59:35;;;;;;;;;;;21.00;26.00;;;;;;491949;240;1122;-70
2021/01/08 05:01:37;;;;;;;;;;;21.10;26.00;;;;;;491781;240;1552;-70
2021/01/08 05:03:38;;;;;;;;;;;21.00;26.00;;;;;;491801;240;1097;-70
2021/01/08 05:05:39;;;;;;;;;;;21.10;26.00;;;;;;491767;240;1206;-70
2021/01/08 05:07:41;;;;;;;;;;;21.10;26.00;;;;;;491810;240;1218;-70
2021/01/08 05:09:42;;;;;;;;;;;21.10;26.00;;;;;;491745;240;1134;-70
2021/01/08 05:11:43;;;;;;;;;;;21.00;26.00;;;;;;491679;240;1157;-70
2021/01/08 05:13:44;;;;;;;;;;;21.00;26.00;;;;;;491763;240;996;-70
2021/01/08 05:15:46;;;;;;;;;;;21.10;26.00;;;;;;491680;240;2141;-70
2021/01/08 05:17:47;;;;;;;;;;;21.00;26.00;;;;;;491789;240;1006;-70
2021/01/08 05:19:48;;;;;;;;;;;21.00;26.00;;;;;;491767;240;993;-70
2021/01/08 05:21:50;;;;;;;;;;;21.00;26.00;;;;;;491670;240;1201;-70
2021/01/08 05:23:51;;;;;;;;;;;20.90;26.00;;;;;;491763;240;943;-70
2021/01/08 05:25:52;;;;;;;;;;;20.90;26.10;;;;;;491642;240;1104;-70
2021/01/08 05:27:53;;;;;;;;;;;20.90;26.00;;;;;;491764;240;946;-70
2021/01/08 05:29:55;;;;;;;;;;;21.00;26.00;;;;;;491802;240;1057;-70
2021/01/08 05:31:56;;;;;;;;;;;21.00;26.00;;;;;;491712;240;1221;-70
2021/01/08 05:33:58;;;;;;;;;;;21.10;26.00;;;;;;491714;240;943;-70
2021/01/08 05:35:59;;;;;;;;;;;21.10;25.90;;;;;;491707;238;2193;-70
2021/01/08 05:38:02;;;;;;;;;;;21.10;25.90;;;;;;491715;240;1086;-70
2021/01/08 05:40:01;;;;;;;;;;;21.00;25.90;;;;;;491702;240;1392;-70
2021/01/08 05:42:03;;;;;;;;;;;21.10;26.00;;;;;;491736;240;1167;-70
2021/01/08 05:44:04;;;;;;;;;;;21.10;25.90;;;;;;491739;240;1091;-70
2021/01/08 05:46:05;;;;;;;;;;;21.00;25.90;;;;;;491719;240;1058;-70
2021/01/08 05:48:07;;;;;;;;;;;21.00;26.00;;;;;;491638;240;1147;-70
2021/01/08 05:50:08;;;;;;;;;;;21.10;26.00;;;;;;491653;240;962;-70
2021/01/08 05:52:09;;;;;;;;;;;21.00;25.90;;;;;;491598;240;1289;-70
2021/01/08 05:54:11;;;;;;;;;;;21.00;25.90;;;;;;491721;240;944;-70
2021/01/08 05:56:12;;;;;;;;;;;21.10;25.90;;;;;;491665;240;2163;-70
2021/01/08 05:58:13;;;;;;;;;;;21.00;25.90;;;;;;491660;240;1005;-70
2021/01/08 06:00:14;;;;;;;;;;;21.10;26.00;;;;;;491751;240;977;-70
2021/01/08 06:02:16;;;;;;;;;;;21.00;26.00;;;;;;491716;240;958;-70
2021/01/08 06:04:17;;;;;;;;;;;21.10;26.00;;;;;;491729;240;974;-70
2021/01/08 06:06:20;;;;;;;;;;;21.00;25.90;;;;;;491703;240;1149;-70
2021/01/08 06:08:20;;;;;;;;;;;21.10;25.90;;;;;;491677;240;1374;-70
2021/01/08 06:10:21;;;;;;;;;;;21.00;25.90;;;;;;491662;240;1215;-70
2021/01/08 06:12:22;;;;;;;;;;;21.00;25.90;;;;;;491607;240;1164;-70
2021/01/08 06:14:23;;;;;;;;;;;21.10;26.00;;;;;;491689;240;1001;-70
2021/01/08 06:16:25;;;;;;;;;;;21.00;26.00;;;;;;491624;240;2149;-70
2021/01/08 06:18:26;;;;;;;;;;;21.00;26.00;;;;;;491675;240;1159;-70
2021/01/08 06:20:27;;;;;;;;;;;21.00;25.90;;;;;;491643;240;1174;-70
2021/01/08 06:22:28;;;;;;;;;;;21.00;25.90;;;;;;491643;240;1171;-70
2021/01/08 06:24:30;;;;;;;;;;;21.00;25.90;;;;;;491600;240;1198;-70
2021/01/08 06:26:31;;;;;;;;;;;21.00;25.90;;;;;;491515;240;1103;-70
2021/01/08 06:28:32;;;;;;;;;;;21.00;26.00;;;;;;491616;240;998;-70
2021/01/08 06:30:34;;;;;;;;;;;21.00;25.90;;;;;;491682;240;955;-70
2021/01/08 06:32:35;;;;;;;;;;;21.00;25.90;;;;;;491542;240;1099;-70
2021/01/08 06:34:36;;;;;;;;;;;21.10;26.00;;;;;;491665;240;948;-70
2021/01/08 06:36:38;;;;;;;;;;;21.00;25.90;;;;;;491521;240;2446;-70
2021/01/08 06:38:39;;;;;;;;;;;21.00;25.90;;;;;;491572;240;1264;-70
2021/01/08 06:40:41;;;;;;;;;;;21.00;26.00;;;;;;491529;240;988;-70
2021/01/08 06:42:42;;;;;;;;;;;21.00;26.00;;;;;;491516;240;1062;-70
2021/01/08 06:44:43;;;;;;;;;;;21.10;26.00;;;;;;491598;240;977;-70
2021/01/08 06:46:45;;;;;;;;;;;21.00;25.90;;;;;;491482;240;1347;-70
2021/01/08 06:48:46;;;;;;;;;;;21.10;25.90;;;;;;491601;240;1087;-70
2021/01/08 06:50:47;;;;;;;;;;;21.10;25.90;;;;;;491516;240;1162;-71
2021/01/08 06:52:48;;;;;;;;;;;21.10;25.90;;;;;;491468;240;1102;-70
2021/01/08 06:54:50;;;;;;;;;;;21.10;25.90;;;;;;491644;240;1091;-70
2021/01/08 06:56:51;;;;;;;;;;;21.00;25.90;;;;;;491453;240;2144;-70
2021/01/08 06:58:52;;;;;;;;;;;21.10;25.90;;;;;;491600;240;1107;-70
2021/01/08 07:00:54;;;;;;;;;;;21.10;25.90;;;;;;491549;240;1060;-70
2021/01/08 07:02:55;;;;;;;;;;;21.10;25.80;;;;;;491488;240;1143;-70
2021/01/08 07:04:56;;;;;;;;;;;21.10;25.80;;;;;;491509;240;1085;-70
2021/01/08 07:06:58;;;;;;;;;;;21.10;25.90;;;;;;491468;240;1215;-70
2021/01/08 07:08:59;;;;;;;;;;;21.10;25.80;;;;;;491407;240;1085;-70
2021/01/08 07:11:00;;;;;;;;;;;21.10;25.80;;;;;;491404;240;1355;-70
2021/01/08 07:13:02;;;;;;;;;;;21.10;25.90;;;;;;491413;240;1233;-70
2021/01/08 07:15:03;;;;;;;;;;;21.10;25.80;;;;;;491458;240;1003;-70
2021/01/08 07:17:04;;;;;;;;;;;21.10;25.80;;;;;;491453;240;2252;-70
2021/01/08 07:19:05;;;;;;;;;;;21.10;25.90;;;;;;491522;240;1212;-70
2021/01/08 07:21:07;;;;;;;;;;;21.10;25.90;;;;;;491543;240;943;-70
2021/01/08 07:23:08;;;;;;;;;;;21.00;25.90;;;;;;491441;240;1311;-70
2021/01/08 07:25:09;;;;;;;;;;;21.10;25.90;;;;;;491450;240;942;-70
2021/01/08 07:27:11;;;;;;;;;;;21.10;25.90;;;;;;491471;240;1173;-70
2021/01/08 07:29:12;;;;;;;;;;;21.10;25.90;;;;;;491482;240;1109;-70
2021/01/08 07:31:13;;;;;;;;;;;21.00;25.90;;;;;;491486;240;1065;-70
2021/01/08 07:33:14;;;;;;;;;;;21.00;25.90;;;;;;491380;240;1168;-70
2021/01/08 07:35:16;;;;;;;;;;;21.10;25.90;;;;;;491382;240;961;-70
2021/01/08 07:37:17;;;;;;;;;;;21.10;26.00;;;;;;491412;240;2179;-70
2021/01/08 07:39:18;;;;;;;;;;;21.10;26.00;;;;;;491446;240;999;-70
2021/01/08 07:41:20;;;;;;;;;;;21.10;25.90;;;;;;491310;240;1081;-70
2021/01/08 07:43:21;;;;;;;;;;;21.20;25.80;;;;;;491450;240;1074;-70
2021/01/08 07:45:22;;;;;;;;;;;21.20;25.80;;;;;;491397;240;1241;-70
2021/01/08 07:47:24;;;;;;;;;;;21.20;25.90;;;;;;491340;240;1300;-70
2021/01/08 07:49:25;;;;;;;;;;;21.10;25.90;;;;;;491277;240;1011;-70
2021/01/08 07:51:26;;;;;;;;;;;21.20;25.90;;;;;;491208;240;1100;-70
2021/01/08 07:53:28;;;;;;;;;;;21.20;25.90;;;;;;491278;240;1121;-70
2021/01/08 07:55:29;;;;;;;;;;;21.20;25.90;;;;;;491250;240;1139;-70
2021/01/08 07:57:30;;;;;;;;;;;21.20;25.90;;;;;;491281;240;2180;-70
2021/01/08 07:59:31;;;;;;;;;;;21.20;25.90;;;;;;491328;240;1050;-70
2021/01/08 08:01:33;;;;;;;;;;;21.20;25.90;;;;;;491281;240;1256;-70
2021/01/08 08:03:34;;;;;;;;;;;21.20;25.90;;;;;;491314;240;1071;-70
2021/01/08 08:05:35;;;;;;;;;;;21.10;25.90;;;;;;491277;240;1061;-70
2021/01/08 08:07:37;;;;;;;;;;;21.20;25.90;;;;;;491307;240;1121;-71
2021/01/08 08:09:39;;;;;;;;;;;21.10;25.90;;;;;;491327;240;1001;-71
2021/01/08 08:11:40;;;;;;;;;;;21.10;26.00;;;;;;491273;240;1225;-70
2021/01/08 08:13:41;;;;;;;;;;;21.10;25.90;;;;;;491199;240;1124;-70
2021/01/08 08:15:43;;;;;;;;;;;21.20;26.00;;;;;;491123;240;2175;-70
2021/01/08 08:17:44;;;;;;;;;;;21.20;25.90;;;;;;491217;240;1253;-71
2021/01/08 08:19:46;;;;;;;;;;;21.10;25.90;;;;;;491191;240;1054;-70
2021/01/08 08:21:48;;;;;;;;;;;21.10;25.90;;;;;;491224;240;1080;-70
2021/01/08 08:23:49;;;;;;;;;;;21.10;25.90;;;;;;491379;240;1205;-70
2021/01/08 08:25:50;;;;;;;;;;;21.10;25.90;;;;;;491249;240;1126;-70
2021/01/08 08:27:52;;;;;;;;;;;21.10;26.00;;;;;;491192;240;1226;-60
2021/01/08 08:29:53;;;;;;;;;;;21.90;25.40;;;;;;491201;240;1115;-60
2021/01/08 08:31:54;;;;;;;;;;;22.50;24.90;;;;;;491100;240;966;-61
2021/01/08 08:33:56;;;;;;;;;;;22.70;24.70;;;;;;491123;240;1119;-58
2021/01/08 08:35:57;;;;;;;;;;;22.70;24.70;;;;;;491106;240;2148;-58
2021/01/08 08:37:58;;;;;;;;;;;22.90;24.50;;;;;;491139;240;1183;-59
2021/01/08 08:40:00;;;;;;;;;;;23.20;24.40;;;;;;491219;240;1042;-63
2021/01/08 08:42:01;;;;;;;;;;;22.90;24.50;;;;;;491225;240;1107;-60
2021/01/08 08:44:02;;;;;;;;;;;22.60;24.80;;;;;;491176;240;1067;-61
2021/01/08 08:48:04;;;;;;;;;;;23.10;24.00;;;;;;502329;234;1169;-66
2021/01/08 08:50:04;;;;;;;;;;;22.30;25.10;;;;;;491179;242;1981;-64
2021/01/08 08:52:05;;;;;;;;;;;21.70;25.60;;;;;;491145;240;1088;-69
2021/01/08 08:54:07;;;;;;;;;;;21.40;25.80;;;;;;491210;240;1065;-67
2021/01/08 08:56:08;;;;;;;;;;;21.10;26.00;;;;;;491133;240;1056;-70
2021/01/08 08:58:10;;;;;;;;;;;20.80;26.30;;;;;;491283;240;1110;-70
2021/01/08 09:00:11;;;;;;;;;;;20.60;26.70;;;;;;491262;240;1060;-70
2021/01/08 09:02:13;;;;;;;;;;;20.70;26.50;;;;;;491172;240;1172;-62
2021/01/08 09:05:23;;;;;;;;;;;22.40;24.60;;;;;;502120;233;1160;-66
2021/01/08 09:07:24;;;;;;;;;;;22.70;25.00;;;;;;491165;241;1002;-66
2021/01/08 09:09:25;;;;;;;;;;;22.70;25.00;;;;;;491181;240;1017;-66
2021/01/08 09:11:27;;;;;;;;;;;22.70;24.90;;;;;;491260;240;1119;-66
2021/01/08 09:13:28;;;;;;;;;;;22.70;24.90;;;;;;491137;240;999;-65
2021/01/08 09:15:29;;;;;;;;;;;22.80;25.00;;;;;;491210;240;1165;-66
2021/01/08 09:17:31;;;;;;;;;;;22.80;24.90;;;;;;491146;240;1063;-68
2021/01/08 09:19:32;;;;;;;;;;;22.90;24.90;;;;;;491072;240;1205;-68
2021/01/08 09:21:33;;;;;;;;;;;23.10;24.90;;;;;;491254;240;1061;-67
2021/01/08 09:23:36;;;;;;;;;;;23.10;24.60;;;;;;491381;240;2175;-69
2021/01/08 09:25:38;;;;;;;;;;;22.70;24.90;;;;;;491332;240;1237;-70
2021/01/08 09:27:39;;;;;;;;;;;22.40;25.00;;;;;;491359;241;1410;-70
2021/01/08 09:29:40;;;;;;;;;;;22.40;25.30;;;;;;491382;240;1087;-70
2021/01/08 09:31:41;;;;;;;;;;;22.30;25.30;;;;;;491371;240;1220;-71
2021/01/08 09:33:42;;;;;;;;;;;22.50;25.30;;;;;;491407;240;1160;-69
2021/01/08 09:35:44;;;;;;;;;;;22.60;25.20;;;;;;491337;240;1145;-69
2021/01/08 09:37:45;;;;;;;;;;;22.60;25.20;;;;;;491583;240;1059;-69
2021/01/08 09:39:46;;;;;;;;;;;22.50;25.20;;;;;;491427;242;1096;-69
2021/01/08 09:41:48;;;;;;;;;;;22.50;25.30;;;;;;491412;240;1126;-69
2021/01/08 09:43:49;;;;;;;;;;;22.40;25.20;;;;;;491422;240;2183;-69
2021/01/08 09:45:50;;;;;;;;;;;22.40;25.30;;;;;;491375;240;1093;-69
2021/01/08 09:47:51;;;;;;;;;;;22.40;25.30;;;;;;491430;240;1445;-69
2021/01/08 09:49:53;;;;;;;;;;;22.40;25.30;;;;;;491228;240;1215;-69
2021/01/08 09:51:54;;;;;;;;;;;22.40;25.30;;;;;;491310;240;1155;-69
2021/01/08 09:53:55;;;;;;;;;;;22.40;25.30;;;;;;491292;240;1024;-69
2021/01/08 09:55:56;;;;;;;;;;;22.40;25.30;;;;;;491347;240;1052;-69
2021/01/08 09:57:59;;;;;;;;;;;22.40;25.30;;;;;;491247;240;1092;-69
2021/01/08 10:00:00;;;;;;;;;;;22.40;25.30;;;;;;491415;240;1156;-69
2021/01/08 10:02:05;;;;;;;;;;;22.30;25.30;;;;;;491573;240;1132;-69
2021/01/08 10:04:03;;;;;;;;;;;22.30;25.30;;;;;;491095;242;2175;-69
2021/01/08 10:06:09;;;;;;;;;;;22.40;25.40;;;;;;491254;240;1098;-69
2021/01/08 10:08:05;;;;;;;;;;;22.30;25.30;;;;;;491395;242;1301;-69
2021/01/08 10:10:07;;;;;;;;;;;22.40;25.40;;;;;;491208;240;1113;-69
2021/01/08 10:12:08;;;;;;;;;;;22.30;25.30;;;;;;491355;240;1191;-69
2021/01/08 10:14:09;;;;;;;;;;;22.30;25.40;;;;;;491415;240;1028;-69
2021/01/08 10:16:10;;;;;;;;;;;22.30;25.40;;;;;;491459;240;1107;-69
2021/01/08 10:18:12;;;;;;;;;;;22.30;25.40;;;;;;491225;240;1166;-59
2021/01/08 10:20:13;;;;;;;;;;;22.30;25.40;;;;;;491229;240;1197;-57
2021/01/08 10:22:14;;;;;;;;;;;22.40;25.40;;;;;;491269;240;1116;-57
2021/01/08 10:24:15;;;;;;;;;;;22.40;25.30;;;;;;491227;240;2187;-57
2021/01/08 10:26:17;;;;;;;;;;;22.50;25.20;;;;;;491213;240;1180;-57
2021/01/08 10:28:18;;;;;;;;;;;22.60;25.20;;;;;;491100;240;1090;-57
2021/01/08 10:30:19;;;;;;;;;;;22.60;25.20;;;;;;491138;240;1178;-57
2021/01/08 10:32:21;;;;;;;;;;;22.60;25.10;;;;;;491214;240;1129;-57
2021/01/08 10:34:22;;;;;;;;;;;22.70;25.10;;;;;;491250;240;1133;-57
2021/01/08 10:36:23;;;;;;;;;;;22.70;25.00;;;;;;491096;240;1044;-57
2021/01/08 10:38:24;;;;;;;;;;;22.70;25.00;;;;;;491187;240;1171;-57
2021/01/08 10:40:26;;;;;;;;;;;22.70;24.90;;;;;;491182;240;1008;-57
2021/01/08 10:42:27;;;;;;;;;;;22.80;24.90;;;;;;491217;240;1247;-57
2021/01/08 10:44:28;;;;;;;;;;;22.80;24.90;;;;;;491146;240;2193;-57
2021/01/08 10:46:29;;;;;;;;;;;22.80;24.80;;;;;;491286;240;1033;-57
2021/01/08 10:48:31;;;;;;;;;;;22.90;24.80;;;;;;491247;240;1163;-57
2021/01/08 10:50:32;;;;;;;;;;;22.90;24.80;;;;;;491235;240;1172;-57
2021/01/08 10:52:34;;;;;;;;;;;22.90;24.80;;;;;;491229;240;975;-57
2021/01/08 10:54:35;;;;;;;;;;;22.90;24.70;;;;;;491441;240;968;-57
2021/01/08 10:56:36;;;;;;;;;;;22.90;24.70;;;;;;491264;240;2017;-57
2021/01/08 10:58:37;;;;;;;;;;;23.00;24.70;;;;;;491237;240;1139;-57
2021/01/08 11:00:39;;;;;;;;;;;23.00;24.70;;;;;;491141;240;1121;-57
2021/01/08 11:02:40;;;;;;;;;;;23.00;24.70;;;;;;491227;240;1134;-58
2021/01/08 11:04:41;;;;;;;;;;;23.00;24.70;;;;;;491237;240;2184;-57
2021/01/08 11:06:42;;;;;;;;;;;23.00;24.60;;;;;;491218;240;1095;-57
2021/01/08 11:08:44;;;;;;;;;;;23.00;24.60;;;;;;491314;240;1270;-57
2021/01/08 11:10:45;;;;;;;;;;;23.10;24.60;;;;;;491275;240;1104;-57
2021/01/08 11:12:46;;;;;;;;;;;23.10;24.60;;;;;;491229;240;1218;-57
2021/01/08 11:14:48;;;;;;;;;;;23.00;24.50;;;;;;491149;240;1070;-57
2021/01/08 11:16:49;;;;;;;;;;;23.10;24.50;;;;;;491193;240;1354;-57
2021/01/08 11:18:50;;;;;;;;;;;23.10;24.50;;;;;;491276;240;1043;-57
2021/01/08 11:20:51;;;;;;;;;;;23.10;24.50;;;;;;491261;240;1842;-57
2021/01/08 11:22:56;;;;;;;;;;;23.10;24.40;;;;;;491123;240;1082;-57
2021/01/08 11:24:54;;;;;;;;;;;23.10;24.40;;;;;;491142;242;2191;-57
2021/01/08 11:26:55;;;;;;;;;;;23.10;24.40;;;;;;491036;240;1211;-57
2021/01/08 11:28:56;;;;;;;;;;;23.10;24.40;;;;;;491099;240;1100;-57
2021/01/08 11:30:58;;;;;;;;;;;23.10;24.40;;;;;;490863;240;1248;-57
2021/01/08 11:32:59;;;;;;;;;;;23.20;24.40;;;;;;491173;240;1240;-57
2021/01/08 11:35:00;;;;;;;;;;;23.10;24.40;;;;;;491138;240;1081;-56
2021/01/08 11:37:02;;;;;;;;;;;23.10;24.50;;;;;;491206;240;1183;-56
2021/01/08 11:39:05;;;;;;;;;;;22.80;24.50;;;;;;491180;240;1089;-60
2021/01/08 11:41:06;;;;;;;;;;;22.70;24.70;;;;;;491115;240;1143;-56
2021/01/08 11:43:07;;;;;;;;;;;23.00;24.70;;;;;;491303;240;1157;-56
2021/01/08 11:45:09;;;;;;;;;;;23.00;24.60;;;;;;491233;240;2179;-55
2021/01/08 11:47:10;;;;;;;;;;;23.00;24.60;;;;;;491304;240;1087;-70
2021/01/08 11:49:11;;;;;;;;;;;23.10;24.60;;;;;;491278;240;954;-70
2021/01/08 11:51:13;;;;;;;;;;;23.40;24.40;;;;;;491273;240;1197;-69
2021/01/08 11:53:14;;;;;;;;;;;23.40;24.30;;;;;;491221;240;1073;-66
2021/01/08 11:55:15;;;;;;;;;;;23.50;24.30;;;;;;491163;240;1164;-66
2021/01/08 11:57:16;;;;;;;;;;;23.50;24.20;;;;;;491264;240;1187;-59
2021/01/08 11:59:18;;;;;;;;;;;23.30;24.20;;;;;;491328;240;1087;-65